createdAt,value
2023-05-22T00:00:11.908Z,94605.00
2023-05-22T00:01:11.887Z,94607.00
2023-05-22T00:02:11.927Z,94609.00
2023-05-22T00:03:11.965Z,94609.00
2023-05-22T00:04:11.865Z,94603.00
2023-05-22T00:05:11.973Z,94609.00
2023-05-22T00:06:11.874Z,94607.00
2023-05-22T00:07:11.926Z,94607.00
2023-05-22T00:08:11.930Z,94605.00
2023-05-22T00:09:11.918Z,94603.00
2023-05-22T00:10:11.904Z,94599.00
2023-05-22T00:11:11.938Z,94601.00
2023-05-22T00:12:11.899Z,94601.00
2023-05-22T00:13:11.906Z,94599.00
2023-05-22T00:14:11.906Z,94601.00
2023-05-22T00:15:11.893Z,94597.00
2023-05-22T00:16:11.921Z,94599.00
2023-05-22T00:17:11.980Z,94595.00
2023-05-22T00:18:11.924Z,94595.00
2023-05-22T00:19:12.096Z,94593.00
2023-05-22T00:20:11.905Z,94599.00
2023-05-22T00:21:11.943Z,94597.00
2023-05-22T00:22:11.959Z,94595.00
2023-05-22T00:23:13.818Z,94593.00
2023-05-22T00:24:11.932Z,94595.00
2023-05-22T00:25:11.981Z,94597.00
2023-05-22T00:26:11.937Z,94593.00
2023-05-22T00:27:11.914Z,94595.00
2023-05-22T00:28:11.958Z,94595.00
2023-05-22T00:29:11.944Z,94597.00
2023-05-22T00:30:11.909Z,94597.00
2023-05-22T00:31:11.910Z,94601.00
2023-05-22T00:32:11.884Z,94599.00
2023-05-22T00:33:11.848Z,94595.00
2023-05-22T00:34:11.952Z,94595.00
2023-05-22T00:35:11.861Z,94595.00
2023-05-22T00:36:11.870Z,94595.00
2023-05-22T00:37:11.900Z,94599.00
2023-05-22T00:38:11.859Z,94599.00
2023-05-22T00:39:11.862Z,94599.00
2023-05-22T00:40:11.814Z,94599.00
2023-05-22T00:41:11.797Z,94601.00
2023-05-22T00:42:11.886Z,94599.00
2023-05-22T00:43:11.794Z,94601.00
2023-05-22T00:44:11.802Z,94599.00
2023-05-22T00:45:11.822Z,94599.00
2023-05-22T00:46:11.824Z,94599.00
2023-05-22T00:47:11.787Z,94599.00
2023-05-22T00:48:11.744Z,94601.00
2023-05-22T00:49:11.749Z,94601.00
2023-05-22T00:50:11.792Z,94605.00
2023-05-22T00:51:11.766Z,94601.00
2023-05-22T00:52:11.754Z,94601.00
2023-05-22T00:53:11.802Z,94601.00
2023-05-22T00:54:11.733Z,94603.00
2023-05-22T00:55:11.821Z,94601.00
2023-05-22T00:56:11.777Z,94601.00
2023-05-22T00:57:11.741Z,94605.00
2023-05-22T00:58:11.754Z,94603.00
2023-05-22T00:59:11.706Z,94601.00
2023-05-22T01:00:11.699Z,94599.00
2023-05-22T01:01:11.720Z,94601.00
2023-05-22T01:02:11.765Z,94601.00
2023-05-22T01:03:11.801Z,94605.00
2023-05-22T01:04:11.717Z,94597.00
2023-05-22T01:05:11.699Z,94597.00
2023-05-22T01:06:11.654Z,94597.00
2023-05-22T01:07:11.659Z,94605.00
2023-05-22T01:08:11.657Z,94603.00
2023-05-22T01:09:12.305Z,94605.00
2023-05-22T01:10:11.633Z,94605.00
2023-05-22T01:11:11.627Z,94605.00
2023-05-22T01:12:11.629Z,94607.00
2023-05-22T01:13:11.623Z,94603.00
2023-05-22T01:14:11.615Z,94605.00
2023-05-22T01:15:11.591Z,94607.00
2023-05-22T01:16:11.683Z,94611.00
2023-05-22T01:17:11.605Z,94609.00
2023-05-22T01:18:11.627Z,94611.00
2023-05-22T01:19:11.614Z,94615.00
2023-05-22T01:20:11.587Z,94615.00
2023-05-22T01:21:11.570Z,94617.00
2023-05-22T01:22:11.529Z,94615.00
2023-05-22T01:23:11.590Z,94613.00
2023-05-22T01:24:11.552Z,94613.00
2023-05-22T01:25:11.540Z,94617.00
2023-05-22T01:26:11.562Z,94615.00
2023-05-22T01:27:11.556Z,94615.00
2023-05-22T01:28:11.544Z,94617.00
2023-05-22T01:29:11.533Z,94613.00
2023-05-22T01:30:11.494Z,94609.00
2023-05-22T01:31:11.552Z,94611.00
2023-05-22T01:32:11.477Z,94613.00
2023-05-22T01:33:11.577Z,94615.00
2023-05-22T01:34:11.482Z,94617.00
2023-05-22T01:35:11.499Z,94619.00
2023-05-22T01:36:11.464Z,94619.00
2023-05-22T01:37:11.466Z,94621.00
2023-05-22T01:38:11.438Z,94619.00
2023-05-22T01:39:11.436Z,94619.00
2023-05-22T01:40:11.432Z,94630.00
2023-05-22T01:41:11.414Z,94630.00
2023-05-22T01:42:11.435Z,94630.00
2023-05-22T01:43:11.407Z,94632.00
2023-05-22T01:44:11.574Z,94632.00
2023-05-22T01:45:11.801Z,94630.00
2023-05-22T01:46:11.637Z,94636.00
2023-05-22T01:47:11.414Z,94632.00
2023-05-22T01:48:11.415Z,94632.00
2023-05-22T01:49:11.472Z,94638.00
2023-05-22T01:50:11.424Z,94636.00
2023-05-22T01:51:11.571Z,94638.00
2023-05-22T01:52:11.495Z,94638.00
2023-05-22T01:53:11.564Z,94640.00
2023-05-22T01:54:11.572Z,94638.00
2023-05-22T01:55:11.608Z,94638.00
2023-05-22T01:56:11.641Z,94638.00
2023-05-22T01:57:11.647Z,94640.00
2023-05-22T01:58:11.688Z,94640.00
2023-05-22T01:59:11.734Z,94638.00
2023-05-22T02:00:11.820Z,94640.00
2023-05-22T02:01:11.847Z,94640.00
2023-05-22T02:02:11.876Z,94638.00
2023-05-22T02:03:12.092Z,94636.00
2023-05-22T02:04:11.900Z,94640.00
2023-05-22T02:05:11.997Z,94640.00
2023-05-22T02:06:11.979Z,94642.00
2023-05-22T02:07:12.400Z,94642.00
2023-05-22T02:08:12.061Z,94642.00
2023-05-22T02:09:12.106Z,94640.00
2023-05-22T02:10:12.167Z,94642.00
2023-05-22T02:11:12.171Z,94644.00
2023-05-22T02:12:12.226Z,94644.00
2023-05-22T02:13:12.296Z,94646.00
2023-05-22T02:14:12.389Z,94644.00
2023-05-22T02:15:12.322Z,94644.00
2023-05-22T02:16:12.446Z,94644.00
2023-05-22T02:17:12.424Z,94644.00
2023-05-22T02:18:12.511Z,94642.00
2023-05-22T02:19:12.517Z,94642.00
2023-05-22T02:20:12.504Z,94640.00
2023-05-22T02:21:12.608Z,94640.00
2023-05-22T02:22:12.607Z,94638.00
2023-05-22T02:23:12.632Z,94638.00
2023-05-22T02:24:12.683Z,94636.00
2023-05-22T02:25:12.697Z,94640.00
2023-05-22T02:26:12.736Z,94634.00
2023-05-22T02:27:12.789Z,94632.00
2023-05-22T02:28:12.827Z,94636.00
2023-05-22T02:29:12.821Z,94636.00
2023-05-22T02:30:12.921Z,94636.00
2023-05-22T02:31:12.971Z,94632.00
2023-05-22T02:32:12.974Z,94634.00
2023-05-22T02:33:13.028Z,94632.00
2023-05-22T02:34:13.067Z,94634.00
2023-05-22T02:35:13.118Z,94634.00
2023-05-22T02:36:13.199Z,94634.00
2023-05-22T02:37:13.191Z,94634.00
2023-05-22T02:38:13.253Z,94638.00
2023-05-22T02:39:13.312Z,94638.00
2023-05-22T02:40:13.306Z,94636.00
2023-05-22T02:41:13.353Z,94636.00
2023-05-22T02:42:13.421Z,94636.00
2023-05-22T02:43:13.440Z,94638.00
2023-05-22T02:44:13.479Z,94638.00
2023-05-22T02:45:13.514Z,94638.00
2023-05-22T02:46:13.584Z,94640.00
2023-05-22T02:47:13.615Z,94638.00
2023-05-22T02:48:13.699Z,94638.00
2023-05-22T02:49:13.720Z,94640.00
2023-05-22T02:50:13.790Z,94638.00
2023-05-22T02:51:13.784Z,94638.00
2023-05-22T02:52:13.853Z,94640.00
2023-05-22T02:53:13.844Z,94642.00
2023-05-22T02:54:13.910Z,94642.00
2023-05-22T02:55:13.970Z,94642.00
2023-05-22T02:56:13.976Z,94644.00
2023-05-22T02:57:14.036Z,94642.00
2023-05-22T02:58:14.084Z,94644.00
2023-05-22T02:59:14.151Z,94642.00
2023-05-22T03:00:14.241Z,94644.00
2023-05-22T03:01:14.235Z,94648.00
2023-05-22T03:02:14.311Z,94648.00
2023-05-22T03:03:14.386Z,94652.00
2023-05-22T03:04:14.397Z,94650.00
2023-05-22T03:05:14.400Z,94650.00
2023-05-22T03:06:14.498Z,94644.00
2023-05-22T03:07:14.455Z,94646.00
2023-05-22T03:08:14.538Z,94648.00
2023-05-22T03:09:14.536Z,94648.00
2023-05-22T03:10:14.566Z,94648.00
2023-05-22T03:11:14.687Z,94648.00
2023-05-22T03:12:14.660Z,94650.00
2023-05-22T03:13:14.748Z,94650.00
2023-05-22T03:14:14.776Z,94650.00
2023-05-22T03:15:14.824Z,94650.00
2023-05-22T03:16:14.907Z,94650.00
2023-05-22T03:17:14.927Z,94652.00
2023-05-22T03:18:14.948Z,94650.00
2023-05-22T03:19:15.018Z,94646.00
2023-05-22T03:20:15.015Z,94644.00
2023-05-22T03:21:15.051Z,94646.00
2023-05-22T03:22:15.133Z,94646.00
2023-05-22T03:23:15.158Z,94642.00
2023-05-22T03:24:15.237Z,94646.00
2023-05-22T03:25:15.245Z,94648.00
2023-05-22T03:26:15.240Z,94644.00
2023-05-22T03:27:15.307Z,94646.00
2023-05-22T03:28:15.363Z,94646.00
2023-05-22T03:29:15.447Z,94640.00
2023-05-22T03:30:15.427Z,94646.00
2023-05-22T03:31:15.472Z,94644.00
2023-05-22T03:32:15.518Z,94642.00
2023-05-22T03:33:15.599Z,94640.00
2023-05-22T03:34:15.608Z,94642.00
2023-05-22T03:35:15.644Z,94642.00
2023-05-22T03:36:15.679Z,94638.00
2023-05-22T03:37:15.730Z,94640.00
2023-05-22T03:38:15.804Z,94642.00
2023-05-22T03:39:15.789Z,94640.00
2023-05-22T03:40:15.891Z,94640.00
2023-05-22T03:41:15.880Z,94638.00
2023-05-22T03:42:15.920Z,94638.00
2023-05-22T03:43:15.975Z,94640.00
2023-05-22T03:44:16.036Z,94638.00
2023-05-22T03:45:16.048Z,94638.00
2023-05-22T03:46:16.135Z,94638.00
2023-05-22T03:47:16.166Z,94640.00
2023-05-22T03:48:16.201Z,94640.00
2023-05-22T03:49:16.232Z,94642.00
2023-05-22T03:50:16.298Z,94638.00
2023-05-22T03:51:18.131Z,94636.00
2023-05-22T03:52:16.303Z,94636.00
2023-05-22T03:53:16.302Z,94640.00
2023-05-22T03:54:16.336Z,94638.00
2023-05-22T03:55:16.308Z,94638.00
2023-05-22T03:56:16.277Z,94642.00
2023-05-22T03:57:16.251Z,94642.00
2023-05-22T03:58:16.241Z,94642.00
2023-05-22T03:59:16.390Z,94644.00
2023-05-22T04:00:16.262Z,94648.00
2023-05-22T04:01:16.196Z,94648.00
2023-05-22T04:02:16.261Z,94652.00
2023-05-22T04:03:16.293Z,94652.00
2023-05-22T04:04:16.228Z,94654.00
2023-05-22T04:05:16.211Z,94650.00
2023-05-22T04:06:16.198Z,94652.00
2023-05-22T04:07:16.190Z,94654.00
2023-05-22T04:08:16.167Z,94650.00
2023-05-22T04:09:16.176Z,94656.00
2023-05-22T04:10:16.158Z,94650.00
2023-05-22T04:11:16.195Z,94654.00
2023-05-22T04:12:16.156Z,94654.00
2023-05-22T04:13:16.106Z,94652.00
2023-05-22T04:14:16.101Z,94652.00
2023-05-22T04:15:16.124Z,94652.00
2023-05-22T04:16:16.160Z,94652.00
2023-05-22T04:17:16.182Z,94654.00
2023-05-22T04:18:16.107Z,94658.00
2023-05-22T04:19:16.112Z,94658.00
2023-05-22T04:20:16.081Z,94656.00
2023-05-22T04:21:16.068Z,94660.00
2023-05-22T04:22:16.139Z,94660.00
2023-05-22T04:23:16.058Z,94658.00
2023-05-22T04:24:16.066Z,94658.00
2023-05-22T04:25:16.025Z,94658.00
2023-05-22T04:26:16.058Z,94658.00
2023-05-22T04:27:16.033Z,94658.00
2023-05-22T04:28:15.998Z,94660.00
2023-05-22T04:29:16.038Z,94664.00
2023-05-22T04:30:16.026Z,94662.00
2023-05-22T04:31:16.076Z,94658.00
2023-05-22T04:32:16.012Z,94662.00
2023-05-22T04:33:16.015Z,94664.00
2023-05-22T04:34:16.035Z,94662.00
2023-05-22T04:35:16.042Z,94662.00
2023-05-22T04:36:16.080Z,94662.00
2023-05-22T04:37:16.075Z,94664.00
2023-05-22T04:38:16.066Z,94664.00
2023-05-22T04:39:16.179Z,94666.00
2023-05-22T04:40:16.232Z,94668.00
2023-05-22T04:41:16.223Z,94666.00
2023-05-22T04:42:16.243Z,94666.00
2023-05-22T04:43:16.232Z,94668.00
2023-05-22T04:44:16.254Z,94666.00
2023-05-22T04:45:16.283Z,94666.00
2023-05-22T04:46:16.300Z,94664.00
2023-05-22T04:47:16.242Z,94670.00
2023-05-22T04:48:16.273Z,94666.00
2023-05-22T04:49:16.262Z,94672.00
2023-05-22T04:50:16.301Z,94670.00
2023-05-22T04:51:16.289Z,94668.00
2023-05-22T04:52:16.288Z,94668.00
2023-05-22T04:53:16.311Z,94666.00
2023-05-22T04:54:16.345Z,94668.00
2023-05-22T04:55:16.292Z,94670.00
2023-05-22T04:56:24.289Z,94668.00
2023-05-22T04:57:17.358Z,94674.00
2023-05-22T04:58:16.285Z,94674.00
2023-05-22T04:59:16.327Z,94668.00
2023-05-22T05:00:16.318Z,94668.00
2023-05-22T05:01:16.270Z,94668.00
2023-05-22T05:02:16.265Z,94674.00
2023-05-22T05:03:16.379Z,94676.00
2023-05-22T05:04:16.327Z,94674.00
2023-05-22T05:05:16.231Z,94674.00
2023-05-22T05:06:16.246Z,94676.00
2023-05-22T05:07:16.245Z,94674.00
2023-05-22T05:08:16.257Z,94676.00
2023-05-22T05:09:16.216Z,94678.00
2023-05-22T05:10:16.210Z,94676.00
2023-05-22T05:11:16.222Z,94680.00
2023-05-22T05:12:16.230Z,94678.00
2023-05-22T05:13:16.199Z,94678.00
2023-05-22T05:14:16.190Z,94674.00
2023-05-22T05:15:16.167Z,94674.00
2023-05-22T05:16:16.236Z,94674.00
2023-05-22T05:17:16.162Z,94674.00
2023-05-22T05:18:16.215Z,94674.00
2023-05-22T05:19:16.205Z,94676.00
2023-05-22T05:20:16.157Z,94676.00
2023-05-22T05:21:16.158Z,94678.00
2023-05-22T05:22:16.153Z,94676.00
2023-05-22T05:23:16.086Z,94676.00
2023-05-22T05:24:16.250Z,94676.00
2023-05-22T05:25:16.120Z,94676.00
2023-05-22T05:26:16.128Z,94678.00
2023-05-22T05:27:16.332Z,94676.00
2023-05-22T05:28:16.078Z,94680.00
2023-05-22T05:29:16.084Z,94680.00
2023-05-22T05:30:17.649Z,94680.00
2023-05-22T05:31:16.109Z,94680.00
2023-05-22T05:32:16.196Z,94676.00
2023-05-22T05:33:16.190Z,94676.00
2023-05-22T05:34:16.031Z,94676.00
2023-05-22T05:35:16.146Z,94672.00
2023-05-22T05:36:16.026Z,94674.00
2023-05-22T05:37:16.021Z,94674.00
2023-05-22T05:38:16.089Z,94672.00
2023-05-22T05:39:16.004Z,94676.00
2023-05-22T05:40:16.039Z,94676.00
2023-05-22T05:41:15.986Z,94672.00
2023-05-22T05:42:15.979Z,94672.00
2023-05-22T05:43:16.008Z,94666.00
2023-05-22T05:44:16.000Z,94664.00
2023-05-22T05:45:16.024Z,94662.00
2023-05-22T05:46:16.016Z,94668.00
2023-05-22T05:47:15.939Z,94684.00
2023-05-22T05:48:15.917Z,94685.00
2023-05-22T05:49:15.940Z,94684.00
2023-05-22T05:50:15.987Z,94685.00
2023-05-22T05:51:16.006Z,94680.00
2023-05-22T05:52:15.932Z,94684.00
2023-05-22T05:53:15.876Z,94680.00
2023-05-22T05:54:15.931Z,94680.00
2023-05-22T05:55:15.996Z,94680.00
2023-05-22T05:56:15.914Z,94680.00
2023-05-22T05:57:15.872Z,94680.00
2023-05-22T05:58:15.874Z,94687.00
2023-05-22T05:59:15.893Z,94687.00
2023-05-22T06:00:15.865Z,94687.00
2023-05-22T06:01:15.870Z,94691.00
2023-05-22T06:02:15.914Z,94689.00
2023-05-22T06:03:15.881Z,94693.00
2023-05-22T06:04:16.070Z,94691.00
2023-05-22T06:05:15.892Z,94691.00
2023-05-22T06:06:15.826Z,94689.00
2023-05-22T06:07:15.936Z,94689.00
2023-05-22T06:08:15.806Z,94693.00
2023-05-22T06:09:15.803Z,94695.00
2023-05-22T06:10:16.618Z,94697.00
2023-05-22T06:11:15.816Z,94697.00
2023-05-22T06:12:15.770Z,94691.00
2023-05-22T06:13:15.780Z,94689.00
2023-05-22T06:14:15.757Z,94693.00
2023-05-22T06:15:15.759Z,94695.00
2023-05-22T06:16:15.812Z,94693.00
2023-05-22T06:17:15.740Z,94693.00
2023-05-22T06:18:15.766Z,94689.00
2023-05-22T06:19:15.755Z,94680.00
2023-05-22T06:20:15.751Z,94678.00
2023-05-22T06:21:15.724Z,94680.00
2023-05-22T06:22:15.747Z,94684.00
2023-05-22T06:23:15.789Z,94680.00
2023-05-22T06:24:15.697Z,94684.00
2023-05-22T06:25:15.691Z,94684.00
2023-05-22T06:26:15.686Z,94680.00
2023-05-22T06:27:15.726Z,94678.00
2023-05-22T06:28:15.794Z,94678.00
2023-05-22T06:29:15.790Z,94678.00
2023-05-22T06:30:20.253Z,94678.00
2023-05-22T06:31:16.827Z,94676.00
2023-05-22T06:32:15.810Z,94678.00
2023-05-22T06:33:15.834Z,94680.00
2023-05-22T06:34:15.961Z,94676.00
2023-05-22T06:35:15.859Z,94678.00
2023-05-22T06:36:15.781Z,94680.00
2023-05-22T06:37:15.732Z,94682.00
2023-05-22T06:38:15.758Z,94680.00
2023-05-22T06:39:15.804Z,94674.00
2023-05-22T06:40:15.773Z,94672.00
2023-05-22T06:41:15.737Z,94674.00
2023-05-22T06:42:15.691Z,94672.00
2023-05-22T06:43:15.716Z,94670.00
2023-05-22T06:44:15.723Z,94670.00
2023-05-22T06:45:15.815Z,94670.00
2023-05-22T06:46:15.844Z,94666.00
2023-05-22T06:47:15.809Z,94666.00
2023-05-22T06:48:15.809Z,94664.00
2023-05-22T06:49:15.862Z,94664.00
2023-05-22T06:50:15.872Z,94666.00
2023-05-22T06:51:15.912Z,94662.00
2023-05-22T06:52:15.955Z,94666.00
2023-05-22T06:53:16.009Z,94664.00
2023-05-22T06:54:16.004Z,94664.00
2023-05-22T06:55:16.110Z,94664.00
2023-05-22T06:56:16.108Z,94662.00
2023-05-22T06:57:16.135Z,94660.00
2023-05-22T06:58:16.186Z,94660.00
2023-05-22T06:59:16.206Z,94662.00
2023-05-22T07:00:16.258Z,94660.00
2023-05-22T07:01:16.360Z,94658.00
2023-05-22T07:02:16.328Z,94656.00
2023-05-22T07:03:16.333Z,94656.00
2023-05-22T07:04:16.390Z,94670.00
2023-05-22T07:05:16.374Z,94666.00
2023-05-22T07:06:16.426Z,94664.00
2023-05-22T07:07:16.390Z,94664.00
2023-05-22T07:08:16.406Z,94660.00
2023-05-22T07:09:16.398Z,94664.00
2023-05-22T07:10:16.440Z,94660.00
2023-05-22T07:11:16.493Z,94662.00
2023-05-22T07:12:16.503Z,94660.00
2023-05-22T07:13:16.466Z,94660.00
2023-05-22T07:14:16.470Z,94658.00
2023-05-22T07:15:16.536Z,94658.00
2023-05-22T07:16:16.569Z,94660.00
2023-05-22T07:17:16.584Z,94656.00
2023-05-22T07:18:16.645Z,94656.00
2023-05-22T07:19:16.799Z,94656.00
2023-05-22T07:20:16.781Z,94656.00
2023-05-22T07:21:16.815Z,94656.00
2023-05-22T07:22:16.880Z,94652.00
2023-05-22T07:23:16.937Z,94656.00
2023-05-22T07:24:16.977Z,94652.00
2023-05-22T07:25:17.043Z,94652.00
2023-05-22T07:26:17.102Z,94650.00
2023-05-22T07:27:17.345Z,94652.00
2023-05-22T07:28:17.227Z,94648.00
2023-05-22T07:29:17.262Z,94650.00
2023-05-22T07:30:17.351Z,94648.00
2023-05-22T07:31:17.434Z,94638.00
2023-05-22T07:32:17.502Z,94638.00
2023-05-22T07:33:17.490Z,94638.00
2023-05-22T07:34:17.557Z,94638.00
2023-05-22T07:35:17.586Z,94640.00
2023-05-22T07:36:17.670Z,94650.00
2023-05-22T07:37:17.693Z,94646.00
2023-05-22T07:38:17.695Z,94648.00
2023-05-22T07:39:17.802Z,94646.00
2023-05-22T07:40:17.764Z,94646.00
2023-05-22T07:41:17.850Z,94642.00
2023-05-22T07:42:17.968Z,94640.00
2023-05-22T07:43:18.062Z,94640.00
2023-05-22T07:44:17.976Z,94634.00
2023-05-22T07:45:18.061Z,94636.00
2023-05-22T07:46:18.125Z,94632.00
2023-05-22T07:47:18.100Z,94632.00
2023-05-22T07:48:18.219Z,94632.00
2023-05-22T07:49:18.170Z,94632.00
2023-05-22T07:50:18.231Z,94632.00
2023-05-22T07:51:18.315Z,94630.00
2023-05-22T07:52:18.322Z,94621.00
2023-05-22T07:53:18.329Z,94621.00
2023-05-22T07:54:18.474Z,94621.00
2023-05-22T07:55:18.398Z,94619.00
2023-05-22T07:56:18.423Z,94617.00
2023-05-22T07:57:18.417Z,94615.00
2023-05-22T07:58:18.436Z,94617.00
2023-05-22T07:59:18.436Z,94619.00
2023-05-22T08:00:18.494Z,94619.00
2023-05-22T08:01:18.475Z,94615.00
2023-05-22T08:02:18.516Z,94615.00
2023-05-22T08:03:19.523Z,94613.00
2023-05-22T08:04:18.643Z,94609.00
2023-05-22T08:05:18.546Z,94607.00
2023-05-22T08:06:18.540Z,94607.00
2023-05-22T08:07:18.514Z,94607.00
2023-05-22T08:08:18.543Z,94607.00
2023-05-22T08:09:18.519Z,94605.00
2023-05-22T08:10:18.508Z,94603.00
2023-05-22T08:11:18.535Z,94601.00
2023-05-22T08:12:18.551Z,94599.00
2023-05-22T08:13:18.560Z,94597.00
2023-05-22T08:14:18.542Z,94599.00
2023-05-22T08:15:18.552Z,94597.00
2023-05-22T08:16:18.559Z,94595.00
2023-05-22T08:17:18.550Z,94599.00
2023-05-22T08:18:18.502Z,94597.00
2023-05-22T08:19:18.617Z,94597.00
2023-05-22T08:20:18.755Z,94595.00
2023-05-22T08:21:18.596Z,94593.00
2023-05-22T08:22:18.653Z,94595.00
2023-05-22T08:23:18.714Z,94591.00
2023-05-22T08:24:18.778Z,94593.00
2023-05-22T08:25:18.767Z,94589.00
2023-05-22T08:26:18.768Z,94587.00
2023-05-22T08:27:18.810Z,94589.00
2023-05-22T08:28:18.858Z,94585.00
2023-05-22T08:29:18.894Z,94589.00
2023-05-22T08:30:19.315Z,94587.00
2023-05-22T08:31:19.611Z,94585.00
2023-05-22T08:32:19.040Z,94585.00
2023-05-22T08:33:19.089Z,94585.00
2023-05-22T08:34:19.124Z,94585.00
2023-05-22T08:35:19.201Z,94585.00
2023-05-22T08:36:19.275Z,94584.00
2023-05-22T08:37:19.312Z,94584.00
2023-05-22T08:38:19.403Z,94582.00
2023-05-22T08:39:19.526Z,94584.00
2023-05-22T08:40:19.682Z,94582.00
2023-05-22T08:41:19.492Z,94570.00
2023-05-22T08:42:19.492Z,94566.00
2023-05-22T08:43:19.511Z,94578.00
2023-05-22T08:44:19.512Z,94572.00
2023-05-22T08:45:19.523Z,94572.00
2023-05-22T08:46:19.616Z,94568.00
2023-05-22T08:47:19.750Z,94568.00
2023-05-22T08:48:19.656Z,94566.00
2023-05-22T08:49:20.402Z,94564.00
2023-05-22T08:50:19.757Z,94566.00
2023-05-22T08:51:19.791Z,94564.00
2023-05-22T08:52:19.865Z,94562.00
2023-05-22T08:53:19.940Z,94560.00
2023-05-22T08:54:20.003Z,94554.00
2023-05-22T08:55:20.056Z,94554.00
2023-05-22T08:56:20.131Z,94552.00
2023-05-22T08:57:20.129Z,94552.00
2023-05-22T08:58:20.213Z,94554.00
2023-05-22T08:59:20.287Z,94550.00
2023-05-22T09:00:20.334Z,94552.00
2023-05-22T09:01:20.448Z,94548.00
2023-05-22T09:02:20.402Z,94548.00
2023-05-22T09:03:20.649Z,94548.00
2023-05-22T09:04:20.537Z,94546.00
2023-05-22T09:05:20.534Z,94546.00
2023-05-22T09:06:20.569Z,94546.00
2023-05-22T09:07:20.650Z,94542.00
2023-05-22T09:08:21.324Z,94548.00
2023-05-22T09:09:20.681Z,94540.00
2023-05-22T09:10:20.707Z,94538.00
2023-05-22T09:11:20.733Z,94538.00
2023-05-22T09:12:20.792Z,94537.00
2023-05-22T09:13:20.800Z,94535.00
2023-05-22T09:14:20.798Z,94531.00
2023-05-22T09:15:20.869Z,94531.00
2023-05-22T09:16:20.925Z,94529.00
2023-05-22T09:17:20.942Z,94529.00
2023-05-22T09:18:20.935Z,94529.00
2023-05-22T09:19:21.072Z,94529.00
2023-05-22T09:20:20.939Z,94527.00
2023-05-22T09:21:29.562Z,94529.00
2023-05-22T09:22:24.194Z,94529.00
2023-05-22T09:23:20.981Z,94525.00
2023-05-22T09:24:20.928Z,94527.00
2023-05-22T09:25:20.939Z,94521.00
2023-05-22T09:26:20.942Z,94523.00
2023-05-22T09:27:20.949Z,94523.00
2023-05-22T09:28:20.966Z,94521.00
2023-05-22T09:29:21.115Z,94523.00
2023-05-22T09:30:20.928Z,94509.00
2023-05-22T09:31:20.943Z,94507.00
2023-05-22T09:32:20.936Z,94507.00
2023-05-22T09:33:20.920Z,94507.00
2023-05-22T09:34:21.541Z,94507.00
2023-05-22T09:35:20.917Z,94505.00
2023-05-22T09:36:20.907Z,94505.00
2023-05-22T09:37:20.926Z,94503.00
2023-05-22T09:38:20.860Z,94499.00
2023-05-22T09:39:20.872Z,94497.00
2023-05-22T09:40:20.888Z,94499.00
2023-05-22T09:41:20.903Z,94495.00
2023-05-22T09:42:20.828Z,94497.00
2023-05-22T09:43:20.831Z,94495.00
2023-05-22T09:44:20.819Z,94491.00
2023-05-22T09:45:20.811Z,94495.00
2023-05-22T09:46:20.835Z,94495.00
2023-05-22T09:47:20.850Z,94493.00
2023-05-22T09:48:20.762Z,94493.00
2023-05-22T09:49:20.767Z,94493.00
2023-05-22T09:50:20.810Z,94487.00
2023-05-22T09:51:20.797Z,94491.00
2023-05-22T09:52:20.765Z,94493.00
2023-05-22T09:53:20.785Z,94493.00
2023-05-22T09:54:20.791Z,94491.00
2023-05-22T09:55:20.781Z,94489.00
2023-05-22T09:56:30.821Z,94489.00
2023-05-22T09:57:21.769Z,94487.00
2023-05-22T09:58:20.730Z,94489.00
2023-05-22T09:59:20.701Z,94483.00
2023-05-22T10:00:20.748Z,94487.00
2023-05-22T10:01:20.752Z,94483.00
2023-05-22T10:02:20.732Z,94489.00
2023-05-22T10:03:20.731Z,94489.00
2023-05-22T10:04:20.712Z,94485.00
2023-05-22T10:05:20.716Z,94495.00
2023-05-22T10:06:20.705Z,94495.00
2023-05-22T10:07:20.740Z,94493.00
2023-05-22T10:08:20.660Z,94489.00
2023-05-22T10:09:20.683Z,94489.00
2023-05-22T10:10:20.712Z,94485.00
2023-05-22T10:11:20.689Z,94485.00
2023-05-22T10:12:20.649Z,94482.00
2023-05-22T10:13:20.622Z,94482.00
2023-05-22T10:14:20.641Z,94478.00
2023-05-22T10:15:21.134Z,94478.00
2023-05-22T10:16:20.694Z,94478.00
2023-05-22T10:17:20.684Z,94474.00
2023-05-22T10:18:20.691Z,94472.00
2023-05-22T10:19:20.856Z,94472.00
2023-05-22T10:20:20.844Z,94470.00
2023-05-22T10:21:20.806Z,94470.00
2023-05-22T10:22:20.898Z,94472.00
2023-05-22T10:23:20.957Z,94470.00
2023-05-22T10:24:20.991Z,94468.00
2023-05-22T10:25:21.036Z,94468.00
2023-05-22T10:26:21.105Z,94456.00
2023-05-22T10:27:21.112Z,94456.00
2023-05-22T10:28:21.113Z,94456.00
2023-05-22T10:29:21.143Z,94452.00
2023-05-22T10:30:21.137Z,94452.00
2023-05-22T10:31:21.147Z,94450.00
2023-05-22T10:32:21.172Z,94452.00
2023-05-22T10:33:21.316Z,94452.00
2023-05-22T10:34:21.147Z,94448.00
2023-05-22T10:35:21.208Z,94448.00
2023-05-22T10:36:21.213Z,94446.00
2023-05-22T10:37:21.839Z,94444.00
2023-05-22T10:38:21.224Z,94444.00
2023-05-22T10:39:21.336Z,94440.00
2023-05-22T10:40:21.273Z,94438.00
2023-05-22T10:41:21.263Z,94440.00
2023-05-22T10:42:21.315Z,94436.00
2023-05-22T10:43:21.323Z,94436.00
2023-05-22T10:44:21.338Z,94435.00
2023-05-22T10:45:21.378Z,94433.00
2023-05-22T10:46:21.407Z,94431.00
2023-05-22T10:47:21.397Z,94429.00
2023-05-22T10:48:21.410Z,94431.00
2023-05-22T10:49:21.424Z,94427.00
2023-05-22T10:50:21.460Z,94425.00
2023-05-22T10:51:21.489Z,94423.00
2023-05-22T10:52:21.444Z,94421.00
2023-05-22T10:53:21.509Z,94423.00
2023-05-22T10:54:21.493Z,94423.00
2023-05-22T10:55:21.634Z,94421.00
2023-05-22T10:56:24.439Z,94417.00
2023-05-22T10:57:21.535Z,94415.00
2023-05-22T10:58:21.516Z,94415.00
2023-05-22T10:59:21.535Z,94415.00
2023-05-22T11:00:21.502Z,94411.00
2023-05-22T11:01:21.518Z,94413.00
2023-05-22T11:02:21.644Z,94411.00
2023-05-22T11:03:21.535Z,94411.00
2023-05-22T11:04:21.509Z,94409.00
2023-05-22T11:05:21.440Z,94407.00
2023-05-22T11:06:21.474Z,94403.00
2023-05-22T11:07:21.482Z,94405.00
2023-05-22T11:08:21.426Z,94405.00
2023-05-22T11:09:21.439Z,94403.00
2023-05-22T11:10:21.440Z,94401.00
2023-05-22T11:11:21.507Z,94405.00
2023-05-22T11:12:21.456Z,94407.00
2023-05-22T11:13:21.425Z,94407.00
2023-05-22T11:14:21.393Z,94403.00
2023-05-22T11:15:21.408Z,94405.00
2023-05-22T11:16:21.410Z,94403.00
2023-05-22T11:17:21.402Z,94403.00
2023-05-22T11:18:21.453Z,94403.00
2023-05-22T11:19:23.827Z,94401.00
2023-05-22T11:20:21.417Z,94399.00
2023-05-22T11:21:21.379Z,94391.00
2023-05-22T11:22:21.393Z,94389.00
2023-05-22T11:23:21.345Z,94391.00
2023-05-22T11:24:21.336Z,94389.00
2023-05-22T11:25:21.335Z,94389.00
2023-05-22T11:26:21.425Z,94385.00
2023-05-22T11:27:21.777Z,94387.00
2023-05-22T11:28:21.340Z,94389.00
2023-05-22T11:29:21.324Z,94387.00
2023-05-22T11:30:21.334Z,94385.00
2023-05-22T11:31:21.434Z,94387.00
2023-05-22T11:32:21.275Z,94387.00
2023-05-22T11:33:21.350Z,94387.00
2023-05-22T11:34:21.294Z,94387.00
2023-05-22T11:35:21.388Z,94385.00
2023-05-22T11:36:21.281Z,94383.00
2023-05-22T11:37:21.294Z,94381.00
2023-05-22T11:38:21.292Z,94381.00
2023-05-22T11:39:21.262Z,94378.00
2023-05-22T11:40:21.276Z,94376.00
2023-05-22T11:41:21.259Z,94374.00
2023-05-22T11:42:21.237Z,94374.00
2023-05-22T11:43:21.348Z,94374.00
2023-05-22T11:44:21.234Z,94366.00